Time;durP1;ratioP1;P1;durP2;ratioP2;P2;SDS_P1;SDS_P2;PMS_P1;PMS_P2;Temp;Humidity;BMP_temperature;BMP_pressure;BME280_temperature;BME280_humidity;BME280_pressure;Samples;Min_cycle;Max_cycle;Signal;HPM_P1;HPM_P2
2023/05/02 00:02:13;;;;;;;;;;;13.10;65.90;;;8.57;100.00;95695.69;4995252;28;19940;-51
2023/05/02 00:04:39;;;;;;;;;;;13.10;65.90;;;8.56;100.00;95694.09;4992483;28;19910;-52
2023/05/02 00:07:05;;;;;;;;;;;13.10;65.90;;;8.56;100.00;95695.97;4995099;28;19917;-53
2023/05/02 00:09:31;;;;;;;;;;;13.10;65.90;;;8.56;100.00;95701.28;4994295;28;20300;-54
2023/05/02 00:11:57;;;;;;;;;;;13.10;65.90;;;8.54;100.00;95695.41;4995301;28;19917;-56
2023/05/02 00:14:23;;;;;;;;;;;13.10;66.00;;;8.56;100.00;95691.44;4994373;28;20402;-52
2023/05/02 00:16:49;;;;;;;;;;;13.10;65.90;;;8.56;100.00;95699.41;4994606;28;20008;-57
2023/05/02 00:19:15;;;;;;;;;;;13.10;66.00;;;8.55;100.00;95694.34;4995216;28;20000;-57
2023/05/02 00:21:40;;;;;;;;;;;13.10;66.00;;;8.52;100.00;95693.00;4982865;28;20284;-55
2023/05/02 00:24:06;;;;;;;;;;;13.10;66.10;;;8.48;100.00;95691.09;4995097;28;19909;-53
2023/05/02 00:26:32;;;;;;;;;;;13.10;66.00;;;8.50;100.00;95686.34;4993869;28;20372;-50
2023/05/02 00:28:58;;;;;;;;;;;13.00;66.10;;;8.49;100.00;95693.50;4994474;28;19917;-53
2023/05/02 00:31:24;;;;;;;;;;;13.00;66.10;;;8.48;100.00;95688.44;4994806;28;19909;-51
2023/05/02 00:33:49;;;;;;;;;;;13.00;66.10;;;8.46;100.00;95680.72;4993665;28;19955;-51
2023/05/02 00:36:17;;;;;;;;;;;13.00;66.10;;;8.45;100.00;95673.78;4994781;28;20373;-55
2023/05/02 00:38:43;;;;;;;;;;;13.00;66.10;;;8.44;100.00;95676.72;4997788;28;19913;-50
2023/05/02 00:41:10;;;;;;;;;;;13.00;66.20;;;8.41;100.00;95680.66;5000327;28;19917;-52
2023/05/02 00:43:38;;;;;;;;;;;13.00;66.10;;;8.42;100.00;95676.16;4994414;28;19910;-54
2023/05/02 00:46:05;;;;;;;;;;;12.90;66.10;;;8.41;100.00;95670.03;4990940;28;20013;-52
2023/05/02 00:48:31;;;;;;;;;;;12.90;66.10;;;8.38;100.00;95669.72;4993705;28;19964;-50
2023/05/02 00:50:57;;;;;;;;;;;12.80;66.20;;;8.35;100.00;95679.75;4978998;28;19917;-52
2023/05/02 00:53:23;;;;;;;;;;;12.90;66.20;;;8.35;100.00;95668.34;5000827;28;19909;-52
2023/05/02 00:55:50;;;;;;;;;;;12.90;66.30;;;8.35;100.00;95671.78;4993822;28;19966;-56
2023/05/02 00:58:18;;;;;;;;;;;12.90;66.30;;;8.33;100.00;95673.88;4993131;28;19910;-55
2023/05/02 01:01:36;;;;;;;;;;;12.90;66.30;;;8.32;100.00;95674.94;4991897;28;19964;-51
2023/05/02 01:04:38;;;;;;;;;;;12.90;66.30;;;8.30;100.00;95670.94;4995843;28;19917;-54
2023/05/02 01:07:06;;;;;;;;;;;12.80;66.30;;;8.19;100.00;95671.88;4993257;28;19996;-51
2023/05/02 01:10:20;;;;;;;;;;;12.80;66.30;;;8.19;100.00;95671.88;4991969;28;19914;-55
2023/05/02 01:13:06;;;;;;;;;;;12.80;66.30;;;8.18;100.00;95667.59;4974055;28;19932;-55
2023/05/02 01:15:37;;;;;;;;;;;12.70;66.30;;;8.14;100.00;95669.16;4991151;28;20330;-54
2023/05/02 01:18:07;;;;;;;;;;;12.70;66.30;;;8.11;100.00;95671.22;4975244;28;19959;-52
2023/05/02 01:20:40;;;;;;;;;;;12.70;66.30;;;8.06;100.00;95671.19;4991908;28;19910;-56
2023/05/02 01:23:22;;;;;;;;;;;12.60;66.30;;;8.07;100.00;95675.44;4984208;28;20393;-57
2023/05/02 01:26:09;;;;;;;;;;;12.60;66.40;;;8.04;100.00;95677.78;4991820;28;19920;-55
2023/05/02 01:28:57;;;;;;;;;;;12.60;66.40;;;8.02;100.00;95677.22;4990871;28;19918;-54
2023/05/02 01:31:27;;;;;;;;;;;12.60;66.50;;;7.99;100.00;95680.34;4986021;28;20379;-54
2023/05/02 01:33:57;;;;;;;;;;;12.50;67.30;;;7.99;100.00;95680.34;4987578;28;19967;-57
2023/05/02 01:36:29;;;;;;;;;;;12.50;66.60;;;7.97;100.00;95690.44;4992795;28;19909;-56
2023/05/02 01:38:57;;;;;;;;;;;12.50;66.60;;;7.96;100.00;95686.97;4995153;28;20040;-57
2023/05/02 01:41:29;;;;;;;;;;;12.50;66.70;;;7.92;100.00;95683.19;4997290;28;19909;-55
2023/05/02 01:43:59;;;;;;;;;;;12.50;66.70;;;7.89;100.00;95684.47;4991505;28;19909;-57
2023/05/02 01:46:31;;;;;;;;;;;12.50;66.70;;;7.87;100.00;95683.13;4993508;28;19960;-57
2023/05/02 01:49:02;;;;;;;;;;;12.50;66.70;;;7.93;100.00;95684.81;4991604;28;20407;-55
2023/05/02 01:51:34;;;;;;;;;;;12.40;66.70;;;7.95;100.00;95687.22;4989989;28;20203;-57
2023/05/02 01:54:07;;;;;;;;;;;12.50;66.90;;;7.95;100.00;95692.50;4991305;28;19960;-57
2023/05/02 01:56:38;;;;;;;;;;;12.50;66.90;;;7.91;100.00;95686.91;4989447;28;20287;-55
2023/05/02 01:59:10;;;;;;;;;;;12.50;66.90;;;7.91;100.00;95686.91;4992066;28;20017;-56
2023/05/02 02:01:38;;;;;;;;;;;12.50;66.90;;;7.90;100.00;95690.59;4996696;28;19913;-56
2023/05/02 02:04:10;;;;;;;;;;;12.40;66.80;;;7.84;100.00;95688.94;4990175;28;20028;-56
2023/05/02 02:06:36;;;;;;;;;;;12.40;66.70;;;7.84;100.00;95694.25;4991079;28;19909;-56
2023/05/02 02:09:02;;;;;;;;;;;12.40;66.80;;;7.84;100.00;95696.88;4991185;28;19921;-54
2023/05/02 02:11:57;;;;;;;;;;;12.40;66.70;;;7.82;100.00;95693.66;4989384;28;19910;-57
2023/05/02 02:14:26;;;;;;;;;;;12.40;66.80;;;7.80;100.00;95701.06;4991313;28;19910;-57
2023/05/02 02:17:04;;;;;;;;;;;12.40;66.90;;;7.82;100.00;95706.94;4987328;28;19924;-55
2023/05/02 02:19:32;;;;;;;;;;;12.40;66.90;;;7.82;100.00;95702.41;4988454;28;19909;-57
2023/05/02 02:21:59;;;;;;;;;;;12.40;66.90;;;7.84;100.00;95704.84;4991150;28;19917;-57
2023/05/02 02:24:26;;;;;;;;;;;12.40;67.70;;;7.84;100.00;95716.25;4990911;28;19909;-57
2023/05/02 02:26:52;;;;;;;;;;;12.40;66.90;;;7.85;100.00;95711.75;4990678;28;19909;-55
2023/05/02 02:29:18;;;;;;;;;;;12.40;67.00;;;7.86;100.00;95710.69;4990218;28;19924;-56
2023/05/02 02:31:43;;;;;;;;;;;12.40;66.90;;;7.85;100.00;95709.09;4990645;28;20000;-57
2023/05/02 02:34:10;;;;;;;;;;;12.50;67.00;;;7.86;100.00;95708.84;4991071;28;19920;-56
2023/05/02 02:36:56;;;;;;;;;;;12.50;67.00;;;7.89;100.00;95713.66;4990755;28;19909;-55
2023/05/02 02:39:56;;;;;;;;;;;12.50;67.00;;;7.91;100.00;95715.28;4990133;28;19909;-55
2023/05/02 02:42:30;;;;;;;;;;;12.50;67.00;;;7.91;100.00;95715.28;4991747;28;19909;-57
2023/05/02 02:45:16;;;;;;;;;;;12.50;67.00;;;7.91;100.00;95708.13;4989774;28;19917;-56
2023/05/02 02:47:53;;;;;;;;;;;12.50;67.80;;;7.94;100.00;95710.28;4991937;28;19909;-57
2023/05/02 02:50:51;;;;;;;;;;;12.60;67.00;;;7.95;100.00;95716.38;4989904;28;19917;-55
2023/05/02 02:53:31;;;;;;;;;;;12.60;67.00;;;7.96;100.00;95713.50;4994658;28;20403;-57
2023/05/02 02:56:15;;;;;;;;;;;12.60;67.10;;;7.97;100.00;95714.31;4994149;28;20008;-57
2023/05/02 02:59:03;;;;;;;;;;;12.60;67.00;;;7.99;100.00;95722.81;4993459;28;20318;-57
2023/05/02 03:01:33;;;;;;;;;;;12.60;66.90;;;7.99;100.00;95722.81;4995456;28;19920;-57
2023/05/02 03:04:03;;;;;;;;;;;12.70;67.00;;;8.00;100.00;95724.44;4994694;28;19967;-58
2023/05/02 03:06:28;;;;;;;;;;;12.70;67.00;;;8.01;100.00;95724.16;4994496;28;19920;-54
2023/05/02 03:08:55;;;;;;;;;;;12.70;67.00;;;8.03;100.00;95727.38;4981078;28;19921;-57
2023/05/02 03:11:21;;;;;;;;;;;12.70;66.90;;;8.03;100.00;95732.69;4995206;28;19909;-57
2023/05/02 03:13:47;;;;;;;;;;;12.70;66.90;;;8.01;100.00;95734.78;4995442;28;20379;-57
2023/05/02 03:16:33;;;;;;;;;;;12.70;66.90;;;8.01;100.00;95736.63;4994597;28;20357;-57
2023/05/02 03:18:59;;;;;;;;;;;12.70;67.60;;;8.02;100.00;95732.91;4995137;28;20051;-57
2023/05/02 03:21:25;;;;;;;;;;;12.70;66.90;;;8.03;100.00;95732.69;5002665;28;20375;-57
2023/05/02 03:23:51;;;;;;;;;;;12.70;66.80;;;8.04;100.00;95744.09;4995185;28;19909;-56
2023/05/02 03:26:17;;;;;;;;;;;12.70;66.80;;;8.04;100.00;95736.94;4994591;28;19991;-54
2023/05/02 03:28:45;;;;;;;;;;;12.70;66.80;;;8.04;100.00;95738.78;4996649;28;19914;-58
2023/05/02 03:31:13;;;;;;;;;;;12.70;66.80;;;8.04;100.00;95739.59;4994313;28;19910;-55
2023/05/02 03:33:39;;;;;;;;;;;12.70;66.80;;;8.01;100.00;95737.44;4994061;28;20067;-57
2023/05/02 03:36:06;;;;;;;;;;;12.70;66.80;;;8.05;100.00;95748.34;4994875;28;19996;-55
2023/05/02 03:38:31;;;;;;;;;;;12.70;66.90;;;8.08;100.00;95747.88;4995816;28;19952;-52
2023/05/02 03:40:57;;;;;;;;;;;12.70;67.00;;;8.09;100.00;95746.84;4999733;28;19927;-53
2023/05/02 03:43:23;;;;;;;;;;;12.70;67.00;;;8.11;100.00;95750.81;4995062;28;20287;-51
2023/05/02 03:45:49;;;;;;;;;;;12.70;67.00;;;8.11;100.00;95752.69;5005414;28;20017;-55
2023/05/02 03:48:15;;;;;;;;;;;12.70;67.00;;;8.14;100.00;95754.06;5006725;28;20391;-55
2023/05/02 03:50:40;;;;;;;;;;;12.70;67.10;;;8.13;100.00;95753.25;4995012;28;20002;-57
2023/05/02 03:53:07;;;;;;;;;;;12.70;67.10;;;8.12;100.00;95756.97;4994839;28;19909;-57
2023/05/02 03:55:37;;;;;;;;;;;12.80;67.20;;;8.15;100.00;95763.59;4994274;28;19929;-57
2023/05/02 03:58:03;;;;;;;;;;;12.80;67.20;;;8.15;100.00;95747.69;4989717;28;19909;-57
2023/05/02 04:00:30;;;;;;;;;;;12.80;67.10;;;8.17;100.00;95758.88;4993981;28;19959;-57
2023/05/02 04:02:56;;;;;;;;;;;12.80;67.20;;;8.19;100.00;95765.53;4992885;28;19910;-57
2023/05/02 04:05:22;;;;;;;;;;;12.80;67.90;;;8.20;100.00;95764.50;4994194;28;19916;-57
2023/05/02 04:07:47;;;;;;;;;;;12.80;67.20;;;8.19;100.00;95762.09;4994301;28;19948;-57
2023/05/02 04:10:16;;;;;;;;;;;12.80;67.20;;;8.20;100.00;95769.00;4993292;28;19910;-56
2023/05/02 04:12:43;;;;;;;;;;;12.80;67.20;;;8.20;100.00;95767.13;4994847;28;19909;-56
2023/05/02 04:15:10;;;;;;;;;;;12.80;67.20;;;8.20;100.00;95775.09;4991822;28;20295;-57
2023/05/02 04:17:36;;;;;;;;;;;12.80;67.20;;;8.18;100.00;95768.44;4994076;28;20044;-57
2023/05/02 04:20:03;;;;;;;;;;;12.80;67.20;;;8.20;100.00;95771.66;4993774;28;20383;-53
2023/05/02 04:22:29;;;;;;;;;;;12.80;67.20;;;8.20;100.00;95774.31;4999059;28;19913;-53
2023/05/02 04:24:56;;;;;;;;;;;12.70;67.20;;;8.20;100.00;95777.75;4994284;28;20315;-52
2023/05/02 04:27:21;;;;;;;;;;;12.80;67.20;;;8.20;100.00;95772.44;4993074;28;19940;-57
2023/05/02 04:29:48;;;;;;;;;;;12.80;67.30;;;8.20;100.00;95782.25;4992738;28;20415;-57
2023/05/02 04:32:15;;;;;;;;;;;12.80;67.30;;;8.20;100.00;95780.41;4993985;28;19971;-54
2023/05/02 04:34:41;;;;;;;;;;;12.80;67.20;;;8.18;100.00;95779.03;4993150;28;19933;-59
2023/05/02 04:37:06;;;;;;;;;;;12.80;67.20;;;8.18;100.00;95781.69;4993937;28;20016;-57
2023/05/02 04:39:33;;;;;;;;;;;12.80;67.20;;;8.15;100.00;95780.34;4992288;28;20008;-58
2023/05/02 04:42:00;;;;;;;;;;;12.80;67.20;;;8.16;100.00;95783.81;4993925;28;20322;-57
2023/05/02 04:44:26;;;;;;;;;;;12.80;67.20;;;8.17;100.00;95783.56;4992798;28;19936;-58
2023/05/02 04:46:52;;;;;;;;;;;12.80;67.20;;;8.15;100.00;95782.19;4993679;28;19975;-57
2023/05/02 04:49:18;;;;;;;;;;;12.80;67.10;;;8.17;100.00;95788.84;4991528;28;19922;-58
2023/05/02 04:51:44;;;;;;;;;;;12.90;67.10;;;8.21;100.00;95794.47;4995078;28;19921;-56
2023/05/02 04:54:12;;;;;;;;;;;12.90;67.20;;;8.21;100.00;95791.81;4993738;28;20004;-58
2023/05/02 04:56:39;;;;;;;;;;;12.90;67.10;;;8.22;100.00;95794.25;4992163;28;19951;-55
2023/05/02 04:59:05;;;;;;;;;;;12.90;67.10;;;8.22;100.00;95799.56;4992892;28;19913;-56
2023/05/02 05:01:31;;;;;;;;;;;12.90;67.10;;;8.21;100.00;95791.81;4991988;28;19916;-56
2023/05/02 05:03:56;;;;;;;;;;;12.90;67.00;;;8.16;100.00;95802.38;4992188;28;19910;-58
2023/05/02 05:06:23;;;;;;;;;;;12.90;66.90;;;8.15;100.00;95804.25;4993409;28;19920;-58
2023/05/02 05:08:49;;;;;;;;;;;12.90;66.90;;;8.14;100.00;95817.72;4992427;28;19924;-54
2023/05/02 05:11:15;;;;;;;;;;;12.90;66.90;;;8.15;100.00;95817.50;4992918;28;19914;-56
2023/05/02 05:13:41;;;;;;;;;;;12.90;66.80;;;8.17;100.00;95820.69;4988840;28;20356;-55
2023/05/02 05:16:07;;;;;;;;;;;13.00;66.80;;;8.21;100.00;95831.63;4991981;28;19915;-57
2023/05/02 05:18:39;;;;;;;;;;;13.00;66.80;;;8.30;100.00;95831.00;5022833;23;20414;-50
2023/05/02 05:21:08;;;;;;;;;;;13.20;66.90;;;8.49;100.00;95842.19;5029574;28;19917;-49
2023/05/02 05:23:35;;;;;;;;;;;13.40;67.00;;;8.70;100.00;95843.22;5032306;28;19919;-50
2023/05/02 05:26:15;;;;;;;;;;;13.60;66.80;;;8.89;100.00;95851.72;5019940;28;19913;-49
2023/05/02 05:28:42;;;;;;;;;;;13.80;66.80;;;9.04;100.00;95851.88;5029970;28;19913;-49
2023/05/02 05:31:15;;;;;;;;;;;14.00;66.80;;;9.14;100.00;95861.84;5014885;28;20275;-50
2023/05/02 05:33:41;;;;;;;;;;;14.20;66.80;;;9.25;100.00;95874.19;5022973;28;19913;-49
2023/05/02 05:36:13;;;;;;;;;;;14.40;66.70;;;9.42;100.00;95871.44;5025386;28;19943;-50
2023/05/02 05:38:40;;;;;;;;;;;14.60;66.60;;;9.52;100.00;95876.06;5029419;28;19951;-50
2023/05/02 05:41:07;;;;;;;;;;;14.80;66.50;;;9.64;100.00;95876.72;5019695;28;19917;-50
2023/05/02 05:43:33;;;;;;;;;;;15.00;66.40;;;9.76;100.00;95889.88;5012137;28;19909;-51
2023/05/02 05:45:59;;;;;;;;;;;15.10;66.30;;;9.82;100.00;95896.06;5019851;28;20394;-49
2023/05/02 05:48:25;;;;;;;;;;;15.20;66.10;;;9.79;100.00;95885.91;5031526;28;19916;-50
2023/05/02 05:50:51;;;;;;;;;;;15.20;66.00;;;9.83;100.00;95895.00;5022748;28;19924;-52
2023/05/02 05:53:18;;;;;;;;;;;15.20;65.80;;;9.86;100.00;95897.16;5030458;28;19909;-53
2023/05/02 05:55:44;;;;;;;;;;;15.20;65.80;;;9.84;100.00;95892.09;5029600;28;19909;-52
2023/05/02 05:58:10;;;;;;;;;;;15.20;65.80;;;9.86;100.00;95894.50;5023795;28;19913;-50
2023/05/02 06:00:38;;;;;;;;;;;15.20;65.70;;;9.91;100.00;95894.56;5029222;28;20303;-49
2023/05/02 06:03:05;;;;;;;;;;;15.20;66.40;;;9.93;100.00;95893.25;5024133;28;19973;-54
2023/05/02 06:05:31;;;;;;;;;;;15.30;65.60;;;9.90;100.00;95896.41;5024968;28;20289;-50
2023/05/02 06:07:58;;;;;;;;;;;15.30;65.40;;;9.96;100.00;95900.72;5011592;28;20371;-49
2023/05/02 06:10:24;;;;;;;;;;;15.30;65.40;;;10.03;100.00;95894.38;5021690;28;19974;-53
2023/05/02 06:12:50;;;;;;;;;;;15.30;65.40;;;10.10;100.00;95897.66;5011997;28;20363;-49
2023/05/02 06:15:17;;;;;;;;;;;15.30;65.40;;;10.09;100.00;95896.03;5012272;28;20255;-51
2023/05/02 06:17:43;;;;;;;;;;;15.40;65.50;;;10.12;100.00;95904.31;5026975;28;20057;-53
2023/05/02 06:20:09;;;;;;;;;;;15.40;65.40;;;10.20;100.00;95908.38;5055235;28;20222;-50
2023/05/02 06:22:35;;;;;;;;;;;15.40;65.50;;;10.23;100.00;95905.19;5034968;28;19966;-49
2023/05/02 06:25:01;;;;;;;;;;;15.40;65.50;;;10.27;100.00;95911.66;5030932;28;20345;-49
2023/05/02 06:27:27;;;;;;;;;;;15.40;65.50;;;10.26;100.00;95917.22;5038349;28;19912;-51
2023/05/02 06:29:53;;;;;;;;;;;15.40;65.50;;;10.16;100.00;95912.59;5049010;28;19916;-50
2023/05/02 06:32:20;;;;;;;;;;;15.40;65.40;;;10.22;100.00;95918.78;5036116;28;19917;-50
2023/05/02 06:34:46;;;;;;;;;;;15.40;65.40;;;10.21;100.00;95907.31;5049498;28;19958;-50
2023/05/02 06:37:11;;;;;;;;;;;15.40;65.30;;;10.28;100.00;95912.44;5035925;28;19960;-50
2023/05/02 06:39:37;;;;;;;;;;;15.60;65.20;;;10.37;100.00;95917.06;5047877;28;19923;-50
2023/05/02 06:42:03;;;;;;;;;;;15.70;65.10;;;10.53;100.00;95914.50;5070804;28;19931;-55
2023/05/02 06:44:29;;;;;;;;;;;15.90;65.10;;;10.75;100.00;95914.38;5069752;28;20003;-50
2023/05/02 06:46:55;;;;;;;;;;;16.10;65.00;;;11.05;100.00;95916.41;5059601;28;20253;-50
2023/05/02 06:49:21;;;;;;;;;;;16.50;65.00;;;11.30;99.47;95915.75;5054226;28;20697;-50
2023/05/02 06:51:47;;;;;;;;;;;17.00;65.50;;;11.67;99.63;95917.47;5056975;28;20003;-53
2023/05/02 06:54:14;;;;;;;;;;;17.40;64.40;;;11.92;96.34;95917.56;5032031;28;19909;-50
2023/05/02 06:56:41;;;;;;;;;;;17.80;64.10;;;12.27;94.31;95924.00;5044627;28;19916;-54
2023/05/02 06:59:07;;;;;;;;;;;18.20;64.00;;;12.51;93.64;95924.28;5018847;28;19909;-52
2023/05/02 07:01:33;;;;;;;;;;;18.50;63.80;;;12.82;90.84;95924.25;5031756;28;19962;-50
2023/05/02 07:04:00;;;;;;;;;;;18.80;63.70;;;13.09;86.36;95931.91;5041141;28;19908;-50
2023/05/02 07:06:26;;;;;;;;;;;19.10;63.60;;;13.34;83.29;95933.75;5018335;28;19940;-50
2023/05/02 07:08:52;;;;;;;;;;;19.40;63.40;;;13.48;83.95;95932.09;5063111;28;19923;-53
2023/05/02 07:11:18;;;;;;;;;;;19.70;63.10;;;13.88;80.92;95931.09;5043859;28;19908;-50
2023/05/02 07:13:45;;;;;;;;;;;20.20;62.60;;;14.18;79.46;95936.53;5071211;28;19908;-50
2023/05/02 07:16:11;;;;;;;;;;;20.60;62.20;;;14.41;78.90;95937.69;5049008;28;19908;-50
2023/05/02 07:18:37;;;;;;;;;;;20.90;61.70;;;14.68;75.33;95940.72;5030263;28;20011;-51
2023/05/02 07:21:03;;;;;;;;;;;21.30;61.30;;;14.87;74.90;95940.81;5035590;28;19991;-50
2023/05/02 07:23:28;;;;;;;;;;;21.50;61.00;;;15.19;76.20;95940.22;5039791;28;19909;-53
2023/05/02 07:25:54;;;;;;;;;;;21.80;60.80;;;15.28;74.53;95948.47;5031702;28;19966;-52
2023/05/02 07:28:20;;;;;;;;;;;21.90;60.90;;;15.22;73.26;95933.50;5049109;28;20357;-50
2023/05/02 07:30:46;;;;;;;;;;;21.80;60.80;;;15.00;74.69;95939.38;5036370;28;20407;-48
2023/05/02 07:33:13;;;;;;;;;;;21.70;60.50;;;14.86;74.85;95936.56;5057307;28;20007;-51
2023/05/02 07:35:39;;;;;;;;;;;21.60;60.30;;;14.80;75.73;95935.00;5063545;28;20340;-52
2023/05/02 07:38:05;;;;;;;;;;;21.40;60.00;;;14.75;73.73;95932.34;5050923;28;19942;-50
2023/05/02 07:40:31;;;;;;;;;;;21.30;59.80;;;14.63;74.09;95934.59;5049941;28;19919;-53
2023/05/02 07:43:01;;;;;;;;;;;21.20;59.80;;;14.57;76.44;95942.72;5041519;28;19958;-50
2023/05/02 07:45:27;;;;;;;;;;;21.10;59.80;;;14.67;77.16;95941.03;5036922;28;19979;-50
2023/05/02 07:47:53;;;;;;;;;;;21.10;59.80;;;14.68;74.81;95938.06;5053004;28;19913;-51
2023/05/02 07:50:19;;;;;;;;;;;21.20;59.80;;;14.65;74.29;95941.28;5052235;28;20287;-51
2023/05/02 07:52:44;;;;;;;;;;;21.30;59.70;;;14.69;74.03;95939.63;5049379;28;19915;-52
2023/05/02 07:55:11;;;;;;;;;;;21.40;59.50;;;14.69;72.69;95939.63;5064816;28;19915;-50
2023/05/02 07:57:37;;;;;;;;;;;21.50;59.50;;;14.99;72.64;95943.94;5053765;28;19940;-51
2023/05/02 08:00:08;;;;;;;;;;;21.70;59.40;;;15.17;70.66;95941.63;5054218;28;19940;-51
2023/05/02 08:02:35;;;;;;;;;;;21.90;59.20;;;15.28;69.47;95946.56;5049698;28;19919;-50
2023/05/02 08:05:02;;;;;;;;;;;22.00;59.00;;;15.42;68.36;95937.84;5049601;28;20002;-50
2023/05/02 08:07:28;;;;;;;;;;;22.10;58.80;;;15.50;66.56;95946.06;5062640;28;19908;-51
2023/05/02 08:09:54;;;;;;;;;;;22.40;58.60;;;15.66;69.83;95940.50;5054047;28;20272;-56
2023/05/02 08:12:20;;;;;;;;;;;22.50;58.30;;;15.85;67.78;95945.94;5053652;28;19995;-51
2023/05/02 08:14:45;;;;;;;;;;;22.80;58.20;;;15.98;64.14;95953.25;5055653;28;20133;-51
2023/05/02 08:17:11;;;;;;;;;;;22.90;58.00;;;15.93;64.88;95956.84;5052868;28;20396;-51
2023/05/02 08:19:37;;;;;;;;;;;23.00;57.70;;;15.95;65.51;95962.72;5059889;28;19915;-51
2023/05/02 08:22:03;;;;;;;;;;;23.00;57.40;;;16.10;65.28;95958.22;5057139;28;20290;-50
2023/05/02 08:24:30;;;;;;;;;;;23.00;57.30;;;16.05;63.54;95958.31;5055916;28;20038;-53
2023/05/02 08:26:55;;;;;;;;;;;22.90;57.70;;;16.05;63.92;95953.72;5050510;28;19922;-50
2023/05/02 08:29:23;;;;;;;;;;;22.80;57.00;;;16.08;63.07;95957.72;5057514;28;19924;-54
2023/05/02 08:31:48;;;;;;;;;;;22.90;57.00;;;16.19;65.60;95954.59;5059879;28;19912;-51
2023/05/02 08:34:14;;;;;;;;;;;23.00;56.90;;;16.16;63.37;95957.06;5059033;28;19946;-52
2023/05/02 08:36:40;;;;;;;;;;;23.10;56.80;;;16.25;63.92;95955.31;5051665;28;19908;-51
2023/05/02 08:39:07;;;;;;;;;;;23.10;56.50;;;16.35;65.08;95965.13;5043852;28;20382;-50
2023/05/02 08:41:32;;;;;;;;;;;23.30;56.30;;;16.19;64.91;95961.84;5051861;28;19916;-48
2023/05/02 08:43:59;;;;;;;;;;;23.40;56.20;;;16.09;63.97;95962.78;5050146;28;19912;-53
2023/05/02 08:46:27;;;;;;;;;;;23.40;55.90;;;15.99;66.39;95962.94;5049360;28;19915;-49
2023/05/02 08:48:57;;;;;;;;;;;23.30;55.80;;;16.09;64.45;95968.16;5051231;28;19920;-49
2023/05/02 08:51:24;;;;;;;;;;;23.20;55.70;;;16.13;64.99;95971.06;5050481;28;20007;-49
2023/05/02 08:53:53;;;;;;;;;;;23.10;55.80;;;15.96;66.15;95969.69;5034715;28;19908;-47
2023/05/02 08:56:19;;;;;;;;;;;22.90;56.00;;;15.77;65.82;95968.88;5035246;28;19909;-52
2023/05/02 08:58:45;;;;;;;;;;;22.70;56.00;;;15.59;66.76;95977.66;5030904;28;19915;-51
2023/05/02 09:01:18;;;;;;;;;;;22.50;56.10;;;15.44;66.93;95975.94;5048369;28;20286;-54
2023/05/02 09:03:46;;;;;;;;;;;22.30;56.20;;;15.55;67.37;95982.00;5059179;28;20739;-50
2023/05/02 09:06:21;;;;;;;;;;;22.10;56.30;;;15.49;68.74;95973.19;5052954;28;19971;-49
2023/05/02 09:08:53;;;;;;;;;;;22.00;56.30;;;15.44;67.58;95971.34;5034836;28;20363;-50
2023/05/02 09:11:20;;;;;;;;;;;21.80;56.30;;;15.44;66.79;95978.63;5045105;28;19965;-47
2023/05/02 09:13:47;;;;;;;;;;;21.70;56.30;;;15.46;69.47;95981.81;5062505;28;19908;-52
2023/05/02 09:16:16;;;;;;;;;;;21.70;56.30;;;15.36;68.93;95982.75;5050555;28;19944;-53
2023/05/02 09:18:52;;;;;;;;;;;21.70;56.10;;;15.43;68.79;95987.75;5047964;28;19938;-50
2023/05/02 09:21:39;;;;;;;;;;;21.70;56.10;;;15.48;68.90;95977.78;5048587;28;20112;-47
2023/05/02 09:24:19;;;;;;;;;;;21.70;56.10;;;15.55;67.57;95976.63;5057432;28;19913;-49
2023/05/02 09:27:04;;;;;;;;;;;21.70;56.10;;;15.61;68.40;95978.97;5051310;28;20003;-51
2023/05/02 09:29:36;;;;;;;;;;;21.80;56.10;;;15.61;67.05;95987.03;5047335;28;20398;-49
2023/05/02 09:32:06;;;;;;;;;;;21.80;56.10;;;15.56;65.66;95980.91;5059084;28;19982;-50
2023/05/02 09:34:33;;;;;;;;;;;21.90;56.00;;;15.62;68.36;95985.13;5056274;28;19923;-49
2023/05/02 09:36:59;;;;;;;;;;;21.90;55.90;;;15.74;66.40;95982.88;5053536;28;20274;-48
2023/05/02 09:39:28;;;;;;;;;;;21.90;55.90;;;15.65;70.28;95985.34;5057979;28;19908;-50
2023/05/02 09:41:55;;;;;;;;;;;21.90;55.80;;;15.83;67.55;95983.03;5054868;28;19909;-49
2023/05/02 09:44:34;;;;;;;;;;;22.10;55.80;;;15.78;67.00;95986.56;5051670;28;19909;-50
2023/05/02 09:47:01;;;;;;;;;;;22.30;55.80;;;15.64;64.52;95980.28;5047990;28;19923;-50
2023/05/02 09:49:43;;;;;;;;;;;22.50;55.30;;;15.79;62.13;95988.16;5050959;28;20006;-54
2023/05/02 09:52:15;;;;;;;;;;;22.70;55.20;;;15.79;64.38;95987.38;5049525;28;20389;-52
2023/05/02 09:54:41;;;;;;;;;;;22.80;54.90;;;16.04;61.50;95986.25;5050811;28;19908;-50
2023/05/02 09:57:07;;;;;;;;;;;23.00;54.70;;;16.30;65.67;95987.50;5051200;28;19912;-52
2023/05/02 09:59:33;;;;;;;;;;;23.10;54.50;;;16.56;59.75;95987.91;5048195;28;20345;-50
2023/05/02 10:02:03;;;;;;;;;;;23.30;54.30;;;16.66;59.07;95987.75;5048833;28;20010;-50
2023/05/02 10:04:31;;;;;;;;;;;23.50;54.00;;;16.95;59.17;95985.97;5045858;28;19912;-50
2023/05/02 10:06:58;;;;;;;;;;;24.00;53.60;;;17.06;57.79;95993.59;5038403;28;20359;-50
2023/05/02 10:09:27;;;;;;;;;;;24.30;53.00;;;17.16;57.68;95999.91;5032655;28;19952;-50
2023/05/02 10:11:55;;;;;;;;;;;24.60;52.40;;;16.79;58.56;95994.31;5040346;28;20022;-50
2023/05/02 10:14:24;;;;;;;;;;;24.90;51.90;;;17.16;58.22;95994.50;5042527;28;19920;-49
2023/05/02 10:17:20;;;;;;;;;;;25.20;51.60;;;18.03;54.86;95993.66;5045815;28;19912;-49
2023/05/02 10:20:06;;;;;;;;;;;26.00;51.20;;;18.36;53.42;95988.09;5023782;28;19917;-50
2023/05/02 10:22:36;;;;;;;;;;;27.00;50.40;;;18.59;52.48;95986.25;5042600;28;19919;-51
2023/05/02 10:25:03;;;;;;;;;;;27.70;49.60;;;18.48;53.64;95985.66;5031491;28;19920;-49
2023/05/02 10:27:30;;;;;;;;;;;27.80;49.20;;;18.65;52.39;95976.94;5038367;28;19939;-49
2023/05/02 10:29:59;;;;;;;;;;;27.80;49.60;;;18.15;59.04;95980.47;5041392;28;19912;-51
2023/05/02 10:32:31;;;;;;;;;;;28.00;48.70;;;18.17;53.97;95988.25;5031034;28;19940;-50
2023/05/02 10:35:03;;;;;;;;;;;27.70;48.40;;;18.07;51.08;95980.38;5031180;28;19957;-48
2023/05/02 10:37:33;;;;;;;;;;;27.30;48.40;;;18.61;50.14;95984.03;5030654;28;20355;-51
2023/05/02 10:40:00;;;;;;;;;;;26.90;48.60;;;18.43;52.42;95983.09;5025077;28;19908;-49
2023/05/02 10:42:28;;;;;;;;;;;26.60;48.70;;;17.84;54.94;95984.91;5014962;28;20354;-48
2023/05/02 10:44:54;;;;;;;;;;;26.30;48.50;;;17.60;53.83;95980.50;5033737;28;19909;-49
2023/05/02 10:47:23;;;;;;;;;;;25.90;48.50;;;17.10;53.07;95983.81;5069071;28;19915;-48
2023/05/02 10:49:59;;;;;;;;;;;25.60;48.70;;;17.17;54.96;95982.63;5070853;28;19919;-48
2023/05/02 10:52:37;;;;;;;;;;;25.30;48.70;;;17.29;56.85;95977.56;5046664;28;19909;-48
2023/05/02 10:55:23;;;;;;;;;;;25.00;48.80;;;17.48;55.12;95978.28;5031096;28;19909;-48
2023/05/02 10:57:57;;;;;;;;;;;24.90;48.90;;;17.70;56.23;95979.50;5040398;28;19912;-53
2023/05/02 11:00:32;;;;;;;;;;;24.80;48.80;;;17.65;54.38;95974.22;5031803;28;19909;-47
2023/05/02 11:02:58;;;;;;;;;;;24.70;48.90;;;17.52;55.46;95962.34;5034033;28;20279;-47
2023/05/02 11:05:26;;;;;;;;;;;24.60;49.40;;;17.01;57.17;95965.97;5055326;28;20392;-46
2023/05/02 11:08:14;;;;;;;;;;;24.60;48.80;;;16.74;56.58;95959.41;5067054;28;20367;-46
2023/05/02 11:10:40;;;;;;;;;;;24.40;48.60;;;16.83;59.37;95957.66;5062700;28;19908;-46
2023/05/02 11:13:06;;;;;;;;;;;24.30;48.60;;;16.74;59.02;95950.53;5056345;28;19912;-46
2023/05/02 11:15:52;;;;;;;;;;;24.10;48.60;;;16.09;57.21;95962.00;5065582;28;19915;-48
2023/05/02 11:18:17;;;;;;;;;;;23.90;48.70;;;16.30;57.62;95960.63;5035114;28;19943;-48
2023/05/02 11:20:44;;;;;;;;;;;23.70;48.80;;;16.27;58.10;95957.72;5044194;28;19912;-49
2023/05/02 11:23:17;;;;;;;;;;;23.80;48.80;;;16.64;57.10;95956.88;5054679;28;20391;-48
2023/05/02 11:25:50;;;;;;;;;;;24.40;48.60;;;17.23;54.67;95960.72;5061011;28;19924;-48
2023/05/02 11:28:35;;;;;;;;;;;25.00;48.10;;;17.47;54.08;95965.13;5050722;28;20397;-47